National City, MI

11:19 AM EDT on October 02, 2014 (GMT -0400)
Tawas Bay Weather | Change Station
CLOSE
Current Station
Personal Weather Station
Location: East Tawas, MI
Elevation: 590 ft
Nearby Weather Stations

Elev 590 ft 44.28 °N, 83.48 °W | Updated 12 seconds ago

Fog
Fog
60.1 °F
Feels Like 60.1 °F
N
6.0
Wind Variable Wind from SE
Gusts 9.0 mph

Today
High -- | Low -- °F
--% Chance of Precip.
Yesterday
High -- | Low -- °F
Precip. -- in
7:33 AM 7:13 PM
First Quarter, 59% visible
Pressure 30.00 in
Visibility 4.0 miles
Clouds Mostly Cloudy 700 ft
Overcast 1200 ft
Dew Point 59 °F
Humidity 96%
Rainfall 0.00 in
Snow Depth Not available.
UV 1 out of 12
Pollen .30 out of 12
Ozone Good
PM2.5 Moderate
Flu Activity Not available.
METAR KOSC 021514Z AUTO 14007KT 4SM BR BKN007 OVC012 16/14 A3000 RMK AO2 T01600145

More Conditions Fewer Conditions

Pressure 30.00 in
Visibility 4.0 miles
Clouds Mostly Cloudy 700 ft
Overcast 1200 ft
Dew Point 59 °F
Humidity 96%
Rainfall 0.00 in
Snow Depth Not available.
UV 1 out of 12
Pollen .30 out of 12
Ozone Good
PM2.5 Moderate
Flu Activity Not available.
METAR KOSC 021514Z AUTO 14007KT 4SM BR BKN007 OVC012 16/14 A3000 RMK AO2 T01600145

More Conditions Fewer Conditions

Nowcast | as of 11:00 am EDT on October 2, 2014

At 12 PM...cloudy. Chance of rain showers. Temperature 63. South winds 8 mph. At 2 PM...cloudy. Chance of rain showers. Temperature 66. South winds 9 mph. At 4 PM...cloudy. Chance of rain showers. Temperature 67. Southeast winds 9 mph. At 6 PM...cloudy. Chance of rain showers. Temperature 67. Southeast winds 8 mph.

×

10-Day Weather Forecast

Almanac

Astronomy

Oct. 02, 2014 Rise Set
Actual Time 7:33 AM EDT 7:13 PM EDT
Civil Twilight 7:04 AM EDT 7:42 PM EDT
Nautical Twilight 6:31 AM EDT 8:16 PM EDT
Astronomical Twilight 5:57 AM EDT 8:50 PM EDT
Moon 3:30 PM EDT 12:37 AM EDT
Length of Visible Light 12h 37m
Length of Day
11h 39m
Tomorrow will be 3m 2s shorter.
First Quarter, 59% of the Moon is Illuminated
Today
First Quarter
Oct 8
Full
Oct 15
Last Quarter
Oct 23
New
Oct 30
First Quarter

Today's Extremes

State Highs State Lows

Community

WunderPhotos

Upload Photos

1,758,255 photos uploaded!

WunderBlogs® & News

By Dr. Jeff Masters
Director of Meteorology, Weather Underground
By Kari Strenfel
Meteorologist, Weather Underground
By Christopher C. Burt
Weather Historian, Weather Underground
October 2, 2014
October 2, 2014
October 2, 2014

Nearby

Air Quality

  Air Quality AQ Index Pollutant
Yesterday Good
PM2.5
Yesterday Good
OZONE
Current Moderate
PM2.5
Current Good
OZONE
Thursday Good
OZONE
Thursday Good
PM2.5
Friday Good
OZONE
Friday Good
PM2.5
Saturday Good
OZONE
Saturday Good
PM2.5

Snow Depth

Station Depth Elevation
No new snow has been reported.

Earthquake Activity

City Distance Mag. Time & Date
No recent earthquake activity has been reported nearby.
Minimum magnitude displayed is 2.5.

Coastal Water Temperatures

Place Temperature
Alpena, MI 60.1 °F

Nearby Weather Stations